createdAt,value
2019-02-17T00:01:06.736Z,21.90
2019-02-17T00:04:12.533Z,21.90
2019-02-17T00:07:18.380Z,21.90
2019-02-17T00:10:24.308Z,21.80
2019-02-17T00:13:30.199Z,21.90
2019-02-17T00:16:36.016Z,21.80
2019-02-17T00:19:42.019Z,21.70
2019-02-17T00:22:47.872Z,21.70
2019-02-17T00:25:53.892Z,21.70
2019-02-17T00:28:59.968Z,21.70
2019-02-17T00:32:05.816Z,21.70
2019-02-17T00:35:11.683Z,21.70
2019-02-17T00:38:17.478Z,21.70
2019-02-17T00:41:23.391Z,21.60
2019-02-17T00:44:29.186Z,21.60
2019-02-17T00:47:34.999Z,21.60
2019-02-17T00:50:40.968Z,21.60
2019-02-17T00:53:46.860Z,21.50
2019-02-17T00:56:52.673Z,21.50
2019-02-17T00:59:58.463Z,21.50
2019-02-17T01:03:04.688Z,21.50
2019-02-17T01:06:10.456Z,21.50
2019-02-17T01:09:16.102Z,21.50
2019-02-17T01:12:21.871Z,21.40
2019-02-17T01:15:27.724Z,21.40
2019-02-17T01:18:33.488Z,21.40
2019-02-17T01:21:39.336Z,21.40
2019-02-17T01:24:45.273Z,21.40
2019-02-17T01:27:51.156Z,21.30
2019-02-17T01:30:57.116Z,21.30
2019-02-17T01:34:10.061Z,21.30
2019-02-17T01:37:15.888Z,21.30
2019-02-17T01:40:21.652Z,21.30
2019-02-17T01:43:27.508Z,21.30
2019-02-17T01:46:33.263Z,21.20
2019-02-17T01:49:39.224Z,21.20
2019-02-17T01:52:44.876Z,21.20
2019-02-17T01:55:50.520Z,21.20
2019-02-17T01:59:15.423Z,21.20
2019-02-17T02:02:21.135Z,21.10
2019-02-17T02:05:26.780Z,21.10
2019-02-17T02:08:32.647Z,21.10
2019-02-17T02:11:38.408Z,21.10
2019-02-17T02:14:44.201Z,21.10
2019-02-17T02:17:50.014Z,21.00
2019-02-17T02:20:55.660Z,21.00
2019-02-17T02:24:01.420Z,21.00
2019-02-17T02:27:07.183Z,21.00
2019-02-17T02:30:13.697Z,21.00
2019-02-17T02:33:19.509Z,21.00
2019-02-17T02:36:26.400Z,21.00
2019-02-17T02:39:32.174Z,20.90
2019-02-17T02:42:38.107Z,20.90
2019-02-17T02:45:44.925Z,20.90
2019-02-17T02:48:50.729Z,20.90
2019-02-17T02:51:56.384Z,20.90
2019-02-17T02:55:02.077Z,20.80
2019-02-17T02:58:07.900Z,20.80
2019-02-17T03:01:14.059Z,20.80
2019-02-17T03:04:19.928Z,20.80
2019-02-17T03:07:25.841Z,20.80
2019-02-17T03:10:31.980Z,20.80
2019-02-17T03:13:37.700Z,20.80
2019-02-17T03:16:43.348Z,20.70
2019-02-17T03:19:49.247Z,20.70
2019-02-17T03:22:55.100Z,20.70
2019-02-17T03:26:00.992Z,20.70
2019-02-17T03:29:06.784Z,20.70
2019-02-17T03:32:12.650Z,20.60
2019-02-17T03:35:18.429Z,20.60
2019-02-17T03:38:24.246Z,20.60
2019-02-17T03:41:29.945Z,20.60
2019-02-17T03:44:35.757Z,20.60
2019-02-17T03:47:41.527Z,20.60
2019-02-17T03:50:47.418Z,20.60
2019-02-17T03:53:53.336Z,20.50
2019-02-17T03:56:59.131Z,20.50
2019-02-17T04:00:16.022Z,20.50
2019-02-17T04:03:12.755Z,20.50
2019-02-17T04:06:18.435Z,20.50
2019-02-17T04:09:25.392Z,20.50
2019-02-17T04:12:31.180Z,20.40
2019-02-17T04:15:37.112Z,20.40
2019-02-17T04:18:43.004Z,20.40
2019-02-17T04:21:48.828Z,20.50
2019-02-17T04:24:54.708Z,20.50
2019-02-17T04:28:00.460Z,20.40
2019-02-17T04:31:06.445Z,20.40
2019-02-17T04:34:12.398Z,20.40
2019-02-17T04:37:18.313Z,20.40
2019-02-17T04:40:24.069Z,20.40
2019-02-17T04:43:29.928Z,20.40
2019-02-17T04:46:35.577Z,20.40
2019-02-17T04:49:41.329Z,20.40
2019-02-17T04:52:47.190Z,20.30
2019-02-17T04:55:52.945Z,20.30
2019-02-17T04:58:58.692Z,20.30
2019-02-17T05:02:04.352Z,20.30
2019-02-17T05:05:10.208Z,20.30
2019-02-17T05:08:15.961Z,20.20
2019-02-17T05:11:22.536Z,20.20
2019-02-17T05:14:28.299Z,20.20
2019-02-17T05:17:34.152Z,20.20
2019-02-17T05:20:39.907Z,20.20
2019-02-17T05:23:45.699Z,20.20
2019-02-17T05:26:51.621Z,20.10
2019-02-17T05:29:57.380Z,20.20
2019-02-17T05:33:03.125Z,20.10
2019-02-17T05:36:08.782Z,20.10
2019-02-17T05:39:14.583Z,20.10
2019-02-17T05:42:20.498Z,20.10
2019-02-17T05:45:26.360Z,20.00
2019-02-17T05:48:32.216Z,20.00
2019-02-17T05:51:38.076Z,20.10
2019-02-17T05:54:43.932Z,20.00
2019-02-17T05:57:49.791Z,20.10
2019-02-17T06:01:03.355Z,20.00
2019-02-17T06:04:03.084Z,20.10
2019-02-17T06:07:08.795Z,20.10
2019-02-17T06:10:14.595Z,20.20
2019-02-17T06:13:20.500Z,20.20
2019-02-17T06:16:26.372Z,20.30
2019-02-17T06:19:32.157Z,20.40
2019-02-17T06:22:38.079Z,20.50
2019-02-17T06:25:43.881Z,20.60
2019-02-17T06:28:49.794Z,20.70
2019-02-17T06:31:55.551Z,20.80
2019-02-17T06:35:01.338Z,21.00
2019-02-17T06:38:07.052Z,21.10
2019-02-17T06:41:12.825Z,21.20
2019-02-17T06:44:18.667Z,21.30
2019-02-17T06:47:32.099Z,21.40
2019-02-17T06:50:37.908Z,21.50
2019-02-17T06:53:43.730Z,21.60
2019-02-17T06:56:53.280Z,21.60
2019-02-17T07:00:19.737Z,21.70
2019-02-17T07:03:25.560Z,21.80
2019-02-17T07:06:34.628Z,21.90
2019-02-17T07:09:40.448Z,22.00
2019-02-17T07:12:46.211Z,22.00
2019-02-17T07:15:51.999Z,22.10
2019-02-17T07:18:57.924Z,22.00
2019-02-17T07:22:03.820Z,22.10
2019-02-17T07:25:09.775Z,22.10
2019-02-17T07:28:15.704Z,22.10
2019-02-17T07:31:22.660Z,22.10
2019-02-17T07:34:28.532Z,22.10
2019-02-17T07:37:34.227Z,22.20
2019-02-17T07:40:40.096Z,22.20
2019-02-17T07:43:45.904Z,22.20
2019-02-17T07:46:51.704Z,22.30
2019-02-17T07:49:57.531Z,22.30
2019-02-17T07:53:03.419Z,22.40
2019-02-17T07:56:09.344Z,22.40
2019-02-17T07:59:15.376Z,22.40
2019-02-17T08:02:21.211Z,22.40
2019-02-17T08:05:26.860Z,22.50
2019-02-17T08:08:32.715Z,22.50
2019-02-17T08:11:38.480Z,22.50
2019-02-17T08:14:44.124Z,22.60
2019-02-17T08:17:49.879Z,22.60
2019-02-17T08:20:55.679Z,22.60
2019-02-17T08:24:01.491Z,22.60
2019-02-17T08:27:07.259Z,22.70
2019-02-17T08:30:13.728Z,22.70
2019-02-17T08:33:19.584Z,22.70
2019-02-17T08:36:25.264Z,22.70
2019-02-17T08:39:31.196Z,22.70
2019-02-17T08:42:36.844Z,22.70
2019-02-17T08:45:42.604Z,22.70
2019-02-17T08:48:48.364Z,22.70
2019-02-17T08:51:54.113Z,22.70
2019-02-17T08:54:59.756Z,22.80
2019-02-17T08:58:05.521Z,22.80
2019-02-17T09:01:11.165Z,22.90
2019-02-17T09:04:16.920Z,22.90
2019-02-17T09:07:22.788Z,22.90
2019-02-17T09:10:28.535Z,23.00
2019-02-17T09:13:35.523Z,23.10
2019-02-17T09:16:41.316Z,23.10
2019-02-17T09:19:47.145Z,23.20
2019-02-17T09:22:52.683Z,23.30
2019-02-17T09:25:58.442Z,23.30
2019-02-17T09:29:04.200Z,23.40
2019-02-17T09:32:16.291Z,23.50
2019-02-17T09:35:17.547Z,23.50
2019-02-17T09:38:23.200Z,23.60
2019-02-17T09:41:28.991Z,23.70
2019-02-17T09:44:34.820Z,23.70
2019-02-17T09:47:40.604Z,23.80
2019-02-17T09:50:46.420Z,23.80
2019-02-17T09:53:52.187Z,23.80
2019-02-17T09:56:57.860Z,23.80
2019-02-17T10:00:03.799Z,23.80
2019-02-17T10:03:09.796Z,23.80
2019-02-17T10:06:15.508Z,23.70
2019-02-17T10:09:21.270Z,23.70
2019-02-17T10:12:27.063Z,23.70
2019-02-17T10:15:32.764Z,23.60
2019-02-17T10:18:38.659Z,23.60
2019-02-17T10:21:44.594Z,23.60
2019-02-17T10:24:50.455Z,23.60
2019-02-17T10:27:56.350Z,23.70
2019-02-17T10:31:02.163Z,23.70
2019-02-17T10:34:07.816Z,23.70
2019-02-17T10:37:13.621Z,23.80
2019-02-17T10:40:19.743Z,23.80
2019-02-17T10:43:25.636Z,23.80
2019-02-17T10:46:31.651Z,23.90
2019-02-17T10:49:37.516Z,23.90
2019-02-17T10:52:43.298Z,23.90
2019-02-17T10:55:49.116Z,23.90
2019-02-17T10:58:54.921Z,23.90
2019-02-17T11:02:00.735Z,23.90
2019-02-17T11:05:06.705Z,23.90
2019-02-17T11:08:12.492Z,23.80
2019-02-17T11:11:18.316Z,23.90
2019-02-17T11:14:24.099Z,23.90
2019-02-17T11:17:29.916Z,23.80
2019-02-17T11:20:35.576Z,23.80
2019-02-17T11:23:41.375Z,23.90
2019-02-17T11:26:47.194Z,23.90
2019-02-17T11:29:53.089Z,23.90
2019-02-17T11:32:59.010Z,23.90
2019-02-17T11:36:04.656Z,23.90
2019-02-17T11:39:17.932Z,24.00
2019-02-17T11:42:23.851Z,24.00
2019-02-17T11:45:30.266Z,24.00
2019-02-17T11:48:36.185Z,24.00
2019-02-17T11:51:41.935Z,24.00
2019-02-17T11:54:48.004Z,24.00
2019-02-17T11:57:54.770Z,24.00
2019-02-17T12:01:00.536Z,24.00
2019-02-17T12:04:06.292Z,24.00
2019-02-17T12:07:12.036Z,24.00
2019-02-17T12:10:17.807Z,24.00
2019-02-17T12:13:23.556Z,24.00
2019-02-17T12:16:36.705Z,24.00
2019-02-17T12:19:36.916Z,24.00
2019-02-17T12:22:48.196Z,24.00
2019-02-17T12:26:15.600Z,24.00
2019-02-17T12:29:26.132Z,24.10
2019-02-17T12:32:31.763Z,24.10
2019-02-17T12:35:37.532Z,24.00
2019-02-17T12:38:43.284Z,24.10
2019-02-17T12:41:50.060Z,24.10
2019-02-17T12:44:57.179Z,24.10
2019-02-17T12:48:03.111Z,24.10
2019-02-17T12:51:08.873Z,24.10
2019-02-17T12:54:14.555Z,24.10
2019-02-17T12:57:20.376Z,24.10
2019-02-17T13:00:26.138Z,24.10
2019-02-17T13:03:31.891Z,24.10
2019-02-17T13:06:37.527Z,24.10
2019-02-17T13:09:43.331Z,24.10
2019-02-17T13:12:49.153Z,24.10
2019-02-17T13:15:54.907Z,24.10
2019-02-17T13:19:00.551Z,24.10
2019-02-17T13:22:06.319Z,24.10
2019-02-17T13:25:12.521Z,24.10
2019-02-17T13:28:18.445Z,24.10
2019-02-17T13:31:24.198Z,24.10
2019-02-17T13:34:31.699Z,24.10
2019-02-17T13:37:37.344Z,24.10
2019-02-17T13:40:43.239Z,24.20
2019-02-17T13:43:49.159Z,24.20
2019-02-17T13:46:54.919Z,24.20
2019-02-17T13:50:00.608Z,24.10
2019-02-17T13:53:11.855Z,24.20
2019-02-17T13:56:14.063Z,24.20
2019-02-17T13:59:19.881Z,24.20
2019-02-17T14:02:25.668Z,24.20
2019-02-17T14:05:31.558Z,24.20
2019-02-17T14:08:37.377Z,24.20
2019-02-17T14:11:43.127Z,24.20
2019-02-17T14:14:48.888Z,24.20
2019-02-17T14:17:54.855Z,24.20
2019-02-17T14:21:00.747Z,24.20
2019-02-17T14:24:07.488Z,24.20
2019-02-17T14:27:13.348Z,24.20
2019-02-17T14:30:19.543Z,24.30
2019-02-17T14:33:25.467Z,24.30
2019-02-17T14:36:31.256Z,24.30
2019-02-17T14:39:36.976Z,24.30
2019-02-17T14:42:42.948Z,24.20
2019-02-17T14:45:48.730Z,24.30
2019-02-17T14:48:54.612Z,24.30
2019-02-17T14:52:00.453Z,24.30
2019-02-17T14:55:06.269Z,24.30
2019-02-17T14:58:12.024Z,24.30
2019-02-17T15:01:17.814Z,24.20
2019-02-17T15:04:23.636Z,24.30
2019-02-17T15:07:29.323Z,24.30
2019-02-17T15:10:35.226Z,24.30
2019-02-17T15:13:41.111Z,24.30
2019-02-17T15:16:47.004Z,24.30
2019-02-17T15:19:52.718Z,24.30
2019-02-17T15:22:58.621Z,24.30
2019-02-17T15:26:04.578Z,24.30
2019-02-17T15:29:11.315Z,24.30
2019-02-17T15:32:17.008Z,24.30
2019-02-17T15:35:22.824Z,24.30
2019-02-17T15:38:29.711Z,24.30
2019-02-17T15:41:35.577Z,24.30
2019-02-17T15:44:41.368Z,24.30
2019-02-17T15:47:47.220Z,24.30
2019-02-17T15:50:53.036Z,24.30
2019-02-17T15:53:58.689Z,24.30
2019-02-17T15:57:04.452Z,24.30
2019-02-17T16:00:12.656Z,24.30
2019-02-17T16:03:18.420Z,24.30
2019-02-17T16:06:24.323Z,24.30
2019-02-17T16:09:30.132Z,24.30
2019-02-17T16:12:35.891Z,24.30
2019-02-17T16:15:41.540Z,24.30
2019-02-17T16:18:47.288Z,24.30
2019-02-17T16:21:53.062Z,24.30
2019-02-17T16:24:58.804Z,24.30
2019-02-17T16:28:04.448Z,24.30
2019-02-17T16:31:10.095Z,24.30
2019-02-17T16:34:15.966Z,24.30
2019-02-17T16:37:21.724Z,24.30
2019-02-17T16:40:28.368Z,24.30
2019-02-17T16:43:34.151Z,24.30
2019-02-17T16:46:39.904Z,24.30
2019-02-17T16:49:45.555Z,24.40
2019-02-17T16:52:51.421Z,24.30
2019-02-17T16:55:57.176Z,24.30
2019-02-17T16:59:02.933Z,24.40
2019-02-17T17:02:09.112Z,24.30
2019-02-17T17:05:15.046Z,24.30
2019-02-17T17:08:21.940Z,24.30
2019-02-17T17:11:27.737Z,24.30
2019-02-17T17:14:33.552Z,24.40
2019-02-17T17:17:39.396Z,24.30
2019-02-17T17:20:45.153Z,24.30
2019-02-17T17:23:50.908Z,24.30
2019-02-17T17:26:56.712Z,24.30
2019-02-17T17:30:02.523Z,24.30
2019-02-17T17:33:08.228Z,24.30
2019-02-17T17:36:14.036Z,24.40
2019-02-17T17:39:20.000Z,24.40
2019-02-17T17:42:25.900Z,24.40
2019-02-17T17:45:31.712Z,24.40
2019-02-17T17:48:37.403Z,24.40
2019-02-17T17:51:43.112Z,24.40
2019-02-17T17:54:48.976Z,24.40
2019-02-17T17:57:54.831Z,24.40
2019-02-17T18:01:00.488Z,24.40
2019-02-17T18:04:06.524Z,24.40
2019-02-17T18:07:12.515Z,24.40
2019-02-17T18:10:18.685Z,24.40
2019-02-17T18:13:24.476Z,24.40
2019-02-17T18:16:30.398Z,24.40
2019-02-17T18:19:36.175Z,24.40
2019-02-17T18:22:41.997Z,24.40
2019-02-17T18:25:48.010Z,24.30
2019-02-17T18:28:53.654Z,24.40
2019-02-17T18:31:59.571Z,24.40
2019-02-17T18:35:05.943Z,24.40
2019-02-17T18:38:11.752Z,24.40
2019-02-17T18:41:17.452Z,24.40
2019-02-17T18:44:23.217Z,24.40
2019-02-17T18:47:29.120Z,24.40
2019-02-17T18:50:34.935Z,24.40
2019-02-17T18:53:40.680Z,24.40
2019-02-17T18:56:46.495Z,24.40
2019-02-17T18:59:52.395Z,24.40
2019-02-17T19:02:58.193Z,24.40
2019-02-17T19:06:03.899Z,24.40
2019-02-17T19:09:10.206Z,24.40
2019-02-17T19:12:15.919Z,24.40
2019-02-17T19:15:21.824Z,24.40
2019-02-17T19:18:27.686Z,24.40
2019-02-17T19:21:33.500Z,24.40
2019-02-17T19:24:39.288Z,24.40
2019-02-17T19:27:45.121Z,24.40
2019-02-17T19:30:50.900Z,24.40
2019-02-17T19:33:56.773Z,24.40
2019-02-17T19:37:02.738Z,24.40
2019-02-17T19:40:09.620Z,24.40
2019-02-17T19:43:15.460Z,24.40
2019-02-17T19:46:21.423Z,24.40
2019-02-17T19:49:27.389Z,24.40
2019-02-17T19:52:33.208Z,24.40
2019-02-17T19:55:38.956Z,24.40
2019-02-17T19:58:44.813Z,24.40
2019-02-17T20:01:50.624Z,24.40
2019-02-17T20:05:08.752Z,24.40
2019-02-17T20:08:14.627Z,24.40
2019-02-17T20:11:20.486Z,24.40
2019-02-17T20:14:26.519Z,24.40
2019-02-17T20:17:32.305Z,24.40
2019-02-17T20:20:38.061Z,24.40
2019-02-17T20:23:43.704Z,24.40
2019-02-17T20:26:49.352Z,24.40
2019-02-17T20:29:55.121Z,24.40
2019-02-17T20:33:01.080Z,24.40
2019-02-17T20:36:07.044Z,24.40
2019-02-17T20:39:12.888Z,24.40
2019-02-17T20:42:18.658Z,24.40
2019-02-17T20:45:24.407Z,24.40
2019-02-17T20:48:30.162Z,24.40
2019-02-17T20:51:35.904Z,24.40
2019-02-17T20:54:41.661Z,24.40
2019-02-17T20:57:47.612Z,24.40
2019-02-17T21:00:53.164Z,24.30
2019-02-17T21:03:58.941Z,24.30
2019-02-17T21:07:04.684Z,24.20
2019-02-17T21:10:10.786Z,24.20
2019-02-17T21:13:16.716Z,24.10
2019-02-17T21:16:22.560Z,24.10
2019-02-17T21:19:28.320Z,24.10
2019-02-17T21:22:33.972Z,24.00
2019-02-17T21:25:39.772Z,23.90
2019-02-17T21:28:45.595Z,23.90
2019-02-17T21:31:51.344Z,23.80
2019-02-17T21:34:57.212Z,23.70
2019-02-17T21:38:02.960Z,23.70
2019-02-17T21:41:09.556Z,23.50
2019-02-17T21:44:16.716Z,23.20
2019-02-17T21:47:23.713Z,22.70
2019-02-17T21:50:29.712Z,22.40
2019-02-17T21:53:35.624Z,22.20
2019-02-17T21:56:41.420Z,22.10
2019-02-17T21:59:47.232Z,22.00
2019-02-17T22:02:53.004Z,22.00
2019-02-17T22:10:23.750Z,22.20
2019-02-17T22:22:09.447Z,22.40
2019-02-17T22:38:32.667Z,23.70
2019-02-17T22:42:12.964Z,24.10
2019-02-17T22:45:18.889Z,24.00
2019-02-17T22:48:24.853Z,23.50
2019-02-17T22:51:30.735Z,23.10
2019-02-17T22:54:36.660Z,22.70
2019-02-17T22:57:42.630Z,22.20
2019-02-17T23:01:06.708Z,21.90
2019-02-17T23:04:14.208Z,21.60
2019-02-17T23:07:19.987Z,21.20
2019-02-17T23:10:25.816Z,21.00
2019-02-17T23:13:31.464Z,20.90
2019-02-17T23:16:37.300Z,20.70
2019-02-17T23:19:43.230Z,20.70
2019-02-17T23:22:49.080Z,20.60
2019-02-17T23:25:55.002Z,20.60
2019-02-17T23:29:00.861Z,20.50
2019-02-17T23:32:06.861Z,20.50
2019-02-17T23:35:12.879Z,20.50
2019-02-17T23:38:18.775Z,20.50
2019-02-17T23:41:24.736Z,20.50
2019-02-17T23:44:30.761Z,20.50
2019-02-17T23:47:36.656Z,20.50
2019-02-17T23:50:42.580Z,20.50
2019-02-17T23:53:48.476Z,20.50
2019-02-17T23:56:54.337Z,20.50
